sensor_id;sensor_type;location;lat;lon;timestamp;P1;durP1;ratioP1;P2;durP2;ratioP2
42714;SDS011;28351;51.480;5.706;2022-07-22T00:01:15;8.25;;;5.68;;
42714;SDS011;28351;51.480;5.706;2022-07-22T00:03:40;11.27;;;6.13;;
42714;SDS011;28351;51.480;5.706;2022-07-22T00:06:06;9.57;;;5.55;;
42714;SDS011;28351;51.480;5.706;2022-07-22T00:08:33;7.63;;;5.18;;
42714;SDS011;28351;51.480;5.706;2022-07-22T00:10:58;9.70;;;5.80;;
42714;SDS011;28351;51.480;5.706;2022-07-22T00:13:24;13.38;;;5.53;;
42714;SDS011;28351;51.480;5.706;2022-07-22T00:15:50;7.07;;;4.90;;
42714;SDS011;28351;51.480;5.706;2022-07-22T00:18:15;10.38;;;5.78;;
42714;SDS011;28351;51.480;5.706;2022-07-22T00:20:41;9.95;;;5.18;;
42714;SDS011;28351;51.480;5.706;2022-07-22T00:23:08;12.18;;;5.00;;
42714;SDS011;28351;51.480;5.706;2022-07-22T00:25:34;8.48;;;5.47;;
42714;SDS011;28351;51.480;5.706;2022-07-22T00:27:59;7.72;;;5.50;;
42714;SDS011;28351;51.480;5.706;2022-07-22T00:30:26;8.88;;;5.43;;
42714;SDS011;28351;51.480;5.706;2022-07-22T00:32:53;7.57;;;4.80;;
42714;SDS011;28351;51.480;5.706;2022-07-22T00:35:19;11.77;;;5.15;;
42714;SDS011;28351;51.480;5.706;2022-07-22T00:37:45;8.82;;;5.20;;
42714;SDS011;28351;51.480;5.706;2022-07-22T00:40:10;8.02;;;4.65;;
42714;SDS011;28351;51.480;5.706;2022-07-22T00:42:36;9.02;;;4.93;;
42714;SDS011;28351;51.480;5.706;2022-07-22T00:45:02;7.75;;;4.97;;
42714;SDS011;28351;51.480;5.706;2022-07-22T00:47:28;7.85;;;4.70;;
42714;SDS011;28351;51.480;5.706;2022-07-22T00:49:54;12.80;;;4.93;;
42714;SDS011;28351;51.480;5.706;2022-07-22T00:52:20;6.55;;;4.68;;
42714;SDS011;28351;51.480;5.706;2022-07-22T00:54:47;10.65;;;4.78;;
42714;SDS011;28351;51.480;5.706;2022-07-22T00:57:13;8.10;;;5.00;;
42714;SDS011;28351;51.480;5.706;2022-07-22T00:59:39;9.73;;;4.68;;
42714;SDS011;28351;51.480;5.706;2022-07-22T01:02:05;8.45;;;4.50;;
42714;SDS011;28351;51.480;5.706;2022-07-22T01:04:30;8.25;;;4.30;;
42714;SDS011;28351;51.480;5.706;2022-07-22T01:06:56;7.35;;;4.32;;
42714;SDS011;28351;51.480;5.706;2022-07-22T01:09:22;7.05;;;4.20;;
42714;SDS011;28351;51.480;5.706;2022-07-22T01:11:47;13.00;;;4.32;;
42714;SDS011;28351;51.480;5.706;2022-07-22T01:14:13;9.07;;;4.32;;
42714;SDS011;28351;51.480;5.706;2022-07-22T01:16:39;6.82;;;4.13;;
42714;SDS011;28351;51.480;5.706;2022-07-22T01:19:04;11.98;;;4.88;;
42714;SDS011;28351;51.480;5.706;2022-07-22T01:21:30;9.02;;;4.45;;
42714;SDS011;28351;51.480;5.706;2022-07-22T01:23:56;10.35;;;5.10;;
42714;SDS011;28351;51.480;5.706;2022-07-22T01:26:22;9.30;;;5.03;;
42714;SDS011;28351;51.480;5.706;2022-07-22T01:28:48;10.38;;;4.93;;
42714;SDS011;28351;51.480;5.706;2022-07-22T01:31:13;8.60;;;4.70;;
42714;SDS011;28351;51.480;5.706;2022-07-22T01:33:39;8.95;;;4.40;;
42714;SDS011;28351;51.480;5.706;2022-07-22T01:36:05;11.10;;;5.28;;
42714;SDS011;28351;51.480;5.706;2022-07-22T01:38:31;7.97;;;4.70;;
42714;SDS011;28351;51.480;5.706;2022-07-22T01:40:57;8.60;;;4.85;;
42714;SDS011;28351;51.480;5.706;2022-07-22T01:43:23;6.90;;;4.45;;
42714;SDS011;28351;51.480;5.706;2022-07-22T01:45:50;12.60;;;5.10;;
42714;SDS011;28351;51.480;5.706;2022-07-22T01:48:17;5.82;;;4.07;;
42714;SDS011;28351;51.480;5.706;2022-07-22T01:50:42;8.10;;;4.30;;
42714;SDS011;28351;51.480;5.706;2022-07-22T01:53:09;9.48;;;5.00;;
42714;SDS011;28351;51.480;5.706;2022-07-22T01:55:38;8.85;;;4.57;;
42714;SDS011;28351;51.480;5.706;2022-07-22T01:58:04;9.90;;;4.95;;
42714;SDS011;28351;51.480;5.706;2022-07-22T02:00:30;5.82;;;4.13;;
42714;SDS011;28351;51.480;5.706;2022-07-22T02:02:57;11.48;;;4.60;;
42714;SDS011;28351;51.480;5.706;2022-07-22T02:05:22;6.88;;;4.43;;
42714;SDS011;28351;51.480;5.706;2022-07-22T02:07:48;10.57;;;4.43;;
42714;SDS011;28351;51.480;5.706;2022-07-22T02:10:14;7.53;;;4.70;;
42714;SDS011;28351;51.480;5.706;2022-07-22T02:12:39;8.45;;;5.00;;
42714;SDS011;28351;51.480;5.706;2022-07-22T02:15:05;7.97;;;4.57;;
42714;SDS011;28351;51.480;5.706;2022-07-22T02:17:35;11.07;;;4.93;;
42714;SDS011;28351;51.480;5.706;2022-07-22T02:20:01;9.95;;;4.68;;
42714;SDS011;28351;51.480;5.706;2022-07-22T02:22:28;6.65;;;4.63;;
42714;SDS011;28351;51.480;5.706;2022-07-22T02:24:53;9.50;;;3.97;;
42714;SDS011;28351;51.480;5.706;2022-07-22T02:27:19;8.02;;;4.25;;
42714;SDS011;28351;51.480;5.706;2022-07-22T02:29:44;8.95;;;5.30;;
42714;SDS011;28351;51.480;5.706;2022-07-22T02:32:10;8.20;;;4.63;;
42714;SDS011;28351;51.480;5.706;2022-07-22T02:34:36;11.48;;;4.80;;
42714;SDS011;28351;51.480;5.706;2022-07-22T02:37:01;9.45;;;4.57;;
42714;SDS011;28351;51.480;5.706;2022-07-22T02:39:27;9.10;;;4.85;;
42714;SDS011;28351;51.480;5.706;2022-07-22T02:41:53;12.85;;;5.20;;
42714;SDS011;28351;51.480;5.706;2022-07-22T02:44:19;13.75;;;4.45;;
42714;SDS011;28351;51.480;5.706;2022-07-22T02:46:45;7.47;;;4.60;;
42714;SDS011;28351;51.480;5.706;2022-07-22T02:49:10;9.43;;;4.72;;
42714;SDS011;28351;51.480;5.706;2022-07-22T02:51:36;12.93;;;4.50;;
42714;SDS011;28351;51.480;5.706;2022-07-22T02:54:01;8.00;;;4.22;;
42714;SDS011;28351;51.480;5.706;2022-07-22T02:56:27;10.05;;;4.65;;
42714;SDS011;28351;51.480;5.706;2022-07-22T02:58:53;9.95;;;4.47;;
42714;SDS011;28351;51.480;5.706;2022-07-22T03:01:19;6.22;;;4.40;;
42714;SDS011;28351;51.480;5.706;2022-07-22T03:03:45;7.90;;;4.97;;
42714;SDS011;28351;51.480;5.706;2022-07-22T03:06:11;9.45;;;4.65;;
42714;SDS011;28351;51.480;5.706;2022-07-22T03:08:37;9.45;;;4.50;;
42714;SDS011;28351;51.480;5.706;2022-07-22T03:11:06;7.85;;;4.30;;
42714;SDS011;28351;51.480;5.706;2022-07-22T03:13:32;8.38;;;4.57;;
42714;SDS011;28351;51.480;5.706;2022-07-22T03:15:57;11.10;;;4.50;;
42714;SDS011;28351;51.480;5.706;2022-07-22T03:18:23;10.13;;;4.22;;
42714;SDS011;28351;51.480;5.706;2022-07-22T03:20:48;8.55;;;4.28;;
42714;SDS011;28351;51.480;5.706;2022-07-22T03:23:14;8.68;;;4.28;;
42714;SDS011;28351;51.480;5.706;2022-07-22T03:25:40;6.95;;;4.30;;
42714;SDS011;28351;51.480;5.706;2022-07-22T03:28:06;9.73;;;4.00;;
42714;SDS011;28351;51.480;5.706;2022-07-22T03:30:32;8.18;;;4.10;;
42714;SDS011;28351;51.480;5.706;2022-07-22T03:33:00;11.50;;;4.70;;
42714;SDS011;28351;51.480;5.706;2022-07-22T03:35:26;12.88;;;4.43;;
42714;SDS011;28351;51.480;5.706;2022-07-22T03:37:52;10.55;;;4.68;;
42714;SDS011;28351;51.480;5.706;2022-07-22T03:40:17;11.00;;;4.45;;
42714;SDS011;28351;51.480;5.706;2022-07-22T03:42:43;8.93;;;4.13;;
42714;SDS011;28351;51.480;5.706;2022-07-22T03:45:08;8.63;;;4.50;;
42714;SDS011;28351;51.480;5.706;2022-07-22T03:47:34;7.22;;;3.97;;
42714;SDS011;28351;51.480;5.706;2022-07-22T03:50:00;11.02;;;4.47;;
42714;SDS011;28351;51.480;5.706;2022-07-22T03:52:27;9.18;;;4.35;;
42714;SDS011;28351;51.480;5.706;2022-07-22T03:54:53;7.80;;;4.45;;
42714;SDS011;28351;51.480;5.706;2022-07-22T03:57:19;9.23;;;4.40;;
42714;SDS011;28351;51.480;5.706;2022-07-22T03:59:45;8.20;;;4.22;;
42714;SDS011;28351;51.480;5.706;2022-07-22T04:02:11;8.10;;;4.88;;
42714;SDS011;28351;51.480;5.706;2022-07-22T04:04:36;5.80;;;3.90;;
42714;SDS011;28351;51.480;5.706;2022-07-22T04:07:05;11.13;;;4.95;;
42714;SDS011;28351;51.480;5.706;2022-07-22T04:09:30;5.40;;;4.13;;
42714;SDS011;28351;51.480;5.706;2022-07-22T04:11:56;6.63;;;4.25;;
42714;SDS011;28351;51.480;5.706;2022-07-22T04:14:21;9.95;;;4.97;;
42714;SDS011;28351;51.480;5.706;2022-07-22T04:16:47;9.82;;;5.00;;
42714;SDS011;28351;51.480;5.706;2022-07-22T04:19:13;7.90;;;4.55;;
42714;SDS011;28351;51.480;5.706;2022-07-22T04:21:39;10.25;;;4.57;;
42714;SDS011;28351;51.480;5.706;2022-07-22T04:24:05;10.32;;;5.13;;
42714;SDS011;28351;51.480;5.706;2022-07-22T04:26:31;10.75;;;5.45;;
42714;SDS011;28351;51.480;5.706;2022-07-22T04:28:57;8.00;;;4.90;;
42714;SDS011;28351;51.480;5.706;2022-07-22T04:31:23;7.90;;;4.93;;
42714;SDS011;28351;51.480;5.706;2022-07-22T04:33:48;10.35;;;4.93;;
42714;SDS011;28351;51.480;5.706;2022-07-22T04:36:14;7.20;;;4.53;;
42714;SDS011;28351;51.480;5.706;2022-07-22T04:38:39;10.10;;;4.75;;
42714;SDS011;28351;51.480;5.706;2022-07-22T04:41:05;7.65;;;5.00;;
42714;SDS011;28351;51.480;5.706;2022-07-22T04:43:31;7.30;;;4.68;;
42714;SDS011;28351;51.480;5.706;2022-07-22T04:45:56;7.82;;;5.03;;
42714;SDS011;28351;51.480;5.706;2022-07-22T04:48:22;7.53;;;4.28;;
42714;SDS011;28351;51.480;5.706;2022-07-22T04:50:47;7.28;;;4.28;;
42714;SDS011;28351;51.480;5.706;2022-07-22T04:53:14;8.35;;;4.13;;
42714;SDS011;28351;51.480;5.706;2022-07-22T04:55:39;9.13;;;4.57;;
42714;SDS011;28351;51.480;5.706;2022-07-22T04:58:05;11.40;;;4.88;;
42714;SDS011;28351;51.480;5.706;2022-07-22T05:00:30;7.10;;;4.47;;
42714;SDS011;28351;51.480;5.706;2022-07-22T05:02:56;11.27;;;5.13;;
42714;SDS011;28351;51.480;5.706;2022-07-22T05:05:22;13.07;;;4.95;;
42714;SDS011;28351;51.480;5.706;2022-07-22T05:07:48;8.38;;;4.70;;
42714;SDS011;28351;51.480;5.706;2022-07-22T05:10:14;8.63;;;4.90;;
42714;SDS011;28351;51.480;5.706;2022-07-22T05:12:39;6.95;;;4.97;;
42714;SDS011;28351;51.480;5.706;2022-07-22T05:15:05;8.10;;;4.38;;
42714;SDS011;28351;51.480;5.706;2022-07-22T05:17:32;7.50;;;4.57;;
42714;SDS011;28351;51.480;5.706;2022-07-22T05:19:57;9.55;;;4.93;;
42714;SDS011;28351;51.480;5.706;2022-07-22T05:22:23;9.50;;;5.00;;
42714;SDS011;28351;51.480;5.706;2022-07-22T05:24:48;8.40;;;4.90;;
42714;SDS011;28351;51.480;5.706;2022-07-22T05:27:14;9.13;;;4.90;;
42714;SDS011;28351;51.480;5.706;2022-07-22T05:29:40;11.38;;;4.97;;
42714;SDS011;28351;51.480;5.706;2022-07-22T05:32:05;8.98;;;4.53;;
42714;SDS011;28351;51.480;5.706;2022-07-22T05:34:31;6.97;;;4.60;;
42714;SDS011;28351;51.480;5.706;2022-07-22T05:36:56;9.48;;;5.40;;
42714;SDS011;28351;51.480;5.706;2022-07-22T05:39:22;10.70;;;6.60;;
42714;SDS011;28351;51.480;5.706;2022-07-22T05:41:47;9.38;;;5.18;;
42714;SDS011;28351;51.480;5.706;2022-07-22T05:44:13;10.80;;;4.60;;
42714;SDS011;28351;51.480;5.706;2022-07-22T05:46:39;11.30;;;5.45;;
42714;SDS011;28351;51.480;5.706;2022-07-22T05:49:05;8.00;;;4.85;;
42714;SDS011;28351;51.480;5.706;2022-07-22T05:51:31;12.18;;;5.43;;
42714;SDS011;28351;51.480;5.706;2022-07-22T05:53:56;11.52;;;5.07;;
42714;SDS011;28351;51.480;5.706;2022-07-22T05:56:22;8.68;;;4.63;;
42714;SDS011;28351;51.480;5.706;2022-07-22T05:58:47;13.95;;;5.40;;
42714;SDS011;28351;51.480;5.706;2022-07-22T06:01:13;10.27;;;5.25;;
42714;SDS011;28351;51.480;5.706;2022-07-22T06:03:39;12.68;;;5.03;;
42714;SDS011;28351;51.480;5.706;2022-07-22T06:06:05;8.48;;;4.47;;
42714;SDS011;28351;51.480;5.706;2022-07-22T06:08:33;8.48;;;4.82;;
42714;SDS011;28351;51.480;5.706;2022-07-22T06:11:00;9.63;;;4.93;;
42714;SDS011;28351;51.480;5.706;2022-07-22T06:13:25;6.18;;;4.38;;
42714;SDS011;28351;51.480;5.706;2022-07-22T06:15:52;7.15;;;4.20;;
42714;SDS011;28351;51.480;5.706;2022-07-22T06:18:17;8.65;;;4.30;;
42714;SDS011;28351;51.480;5.706;2022-07-22T06:20:43;5.30;;;3.40;;
42714;SDS011;28351;51.480;5.706;2022-07-22T06:23:10;8.65;;;4.03;;
42714;SDS011;28351;51.480;5.706;2022-07-22T06:25:35;6.18;;;2.65;;
42714;SDS011;28351;51.480;5.706;2022-07-22T06:28:01;5.18;;;3.47;;
42714;SDS011;28351;51.480;5.706;2022-07-22T06:30:27;7.07;;;3.47;;
42714;SDS011;28351;51.480;5.706;2022-07-22T06:32:53;5.78;;;3.25;;
42714;SDS011;28351;51.480;5.706;2022-07-22T06:35:19;6.22;;;3.20;;
42714;SDS011;28351;51.480;5.706;2022-07-22T06:37:44;7.55;;;4.30;;
42714;SDS011;28351;51.480;5.706;2022-07-22T06:40:10;7.35;;;3.67;;
42714;SDS011;28351;51.480;5.706;2022-07-22T06:42:36;8.73;;;3.25;;
42714;SDS011;28351;51.480;5.706;2022-07-22T06:45:08;6.63;;;3.70;;
42714;SDS011;28351;51.480;5.706;2022-07-22T06:47:34;5.95;;;2.90;;
42714;SDS011;28351;51.480;5.706;2022-07-22T06:50:04;5.47;;;3.30;;
42714;SDS011;28351;51.480;5.706;2022-07-22T06:52:31;8.93;;;3.53;;
42714;SDS011;28351;51.480;5.706;2022-07-22T06:54:57;5.38;;;3.28;;
42714;SDS011;28351;51.480;5.706;2022-07-22T06:57:22;5.97;;;3.33;;
42714;SDS011;28351;51.480;5.706;2022-07-22T06:59:48;10.52;;;3.60;;
42714;SDS011;28351;51.480;5.706;2022-07-22T07:02:14;7.80;;;3.60;;
42714;SDS011;28351;51.480;5.706;2022-07-22T07:04:39;9.00;;;3.47;;
42714;SDS011;28351;51.480;5.706;2022-07-22T07:07:05;6.75;;;3.53;;
42714;SDS011;28351;51.480;5.706;2022-07-22T07:09:31;4.85;;;3.35;;
42714;SDS011;28351;51.480;5.706;2022-07-22T07:11:56;5.22;;;3.67;;
42714;SDS011;28351;51.480;5.706;2022-07-22T07:14:22;7.45;;;4.00;;
42714;SDS011;28351;51.480;5.706;2022-07-22T07:16:50;10.75;;;4.00;;
42714;SDS011;28351;51.480;5.706;2022-07-22T07:19:16;7.10;;;2.83;;
42714;SDS011;28351;51.480;5.706;2022-07-22T07:21:42;7.00;;;3.20;;
42714;SDS011;28351;51.480;5.706;2022-07-22T07:24:07;7.43;;;3.60;;
42714;SDS011;28351;51.480;5.706;2022-07-22T07:26:33;5.72;;;3.88;;
42714;SDS011;28351;51.480;5.706;2022-07-22T07:28:58;5.80;;;3.80;;
42714;SDS011;28351;51.480;5.706;2022-07-22T07:31:24;8.48;;;3.45;;
42714;SDS011;28351;51.480;5.706;2022-07-22T07:33:50;4.70;;;2.67;;
42714;SDS011;28351;51.480;5.706;2022-07-22T07:36:15;4.60;;;2.80;;
42714;SDS011;28351;51.480;5.706;2022-07-22T07:38:41;4.28;;;2.60;;
42714;SDS011;28351;51.480;5.706;2022-07-22T07:41:07;4.60;;;2.85;;
42714;SDS011;28351;51.480;5.706;2022-07-22T07:43:33;8.30;;;2.88;;
42714;SDS011;28351;51.480;5.706;2022-07-22T07:45:59;7.55;;;2.88;;
42714;SDS011;28351;51.480;5.706;2022-07-22T07:48:25;6.60;;;3.45;;
42714;SDS011;28351;51.480;5.706;2022-07-22T07:50:50;4.25;;;2.70;;
42714;SDS011;28351;51.480;5.706;2022-07-22T07:53:16;4.40;;;2.70;;
42714;SDS011;28351;51.480;5.706;2022-07-22T07:55:42;7.97;;;3.53;;
42714;SDS011;28351;51.480;5.706;2022-07-22T07:58:08;5.80;;;3.10;;
42714;SDS011;28351;51.480;5.706;2022-07-22T08:00:34;6.68;;;3.40;;
42714;SDS011;28351;51.480;5.706;2022-07-22T08:03:03;5.70;;;3.50;;
42714;SDS011;28351;51.480;5.706;2022-07-22T08:05:29;5.53;;;3.40;;
42714;SDS011;28351;51.480;5.706;2022-07-22T08:07:55;4.72;;;3.08;;
42714;SDS011;28351;51.480;5.706;2022-07-22T08:10:20;11.05;;;3.20;;
42714;SDS011;28351;51.480;5.706;2022-07-22T08:12:46;6.15;;;3.13;;
42714;SDS011;28351;51.480;5.706;2022-07-22T08:15:13;6.90;;;3.20;;
42714;SDS011;28351;51.480;5.706;2022-07-22T08:17:39;3.97;;;3.20;;
42714;SDS011;28351;51.480;5.706;2022-07-22T08:20:05;6.13;;;2.95;;
42714;SDS011;28351;51.480;5.706;2022-07-22T08:22:31;3.85;;;2.20;;
42714;SDS011;28351;51.480;5.706;2022-07-22T08:24:57;4.38;;;2.40;;
42714;SDS011;28351;51.480;5.706;2022-07-22T08:27:22;4.88;;;2.17;;
42714;SDS011;28351;51.480;5.706;2022-07-22T08:29:48;6.03;;;1.90;;
42714;SDS011;28351;51.480;5.706;2022-07-22T08:32:14;3.83;;;1.48;;
42714;SDS011;28351;51.480;5.706;2022-07-22T08:34:39;4.05;;;1.33;;
42714;SDS011;28351;51.480;5.706;2022-07-22T08:37:05;2.47;;;1.27;;
42714;SDS011;28351;51.480;5.706;2022-07-22T08:39:31;4.05;;;1.35;;
42714;SDS011;28351;51.480;5.706;2022-07-22T08:41:58;3.33;;;1.20;;
42714;SDS011;28351;51.480;5.706;2022-07-22T08:44:24;2.45;;;1.35;;
42714;SDS011;28351;51.480;5.706;2022-07-22T08:46:53;2.17;;;1.50;;
42714;SDS011;28351;51.480;5.706;2022-07-22T08:49:19;3.03;;;1.60;;
42714;SDS011;28351;51.480;5.706;2022-07-22T08:51:44;4.85;;;1.35;;
42714;SDS011;28351;51.480;5.706;2022-07-22T08:54:10;2.05;;;1.40;;
42714;SDS011;28351;51.480;5.706;2022-07-22T08:56:35;4.65;;;1.73;;
42714;SDS011;28351;51.480;5.706;2022-07-22T08:59:03;3.45;;;1.90;;
42714;SDS011;28351;51.480;5.706;2022-07-22T09:01:29;2.63;;;1.60;;
42714;SDS011;28351;51.480;5.706;2022-07-22T09:03:55;5.47;;;2.42;;
42714;SDS011;28351;51.480;5.706;2022-07-22T09:06:23;5.07;;;2.10;;
42714;SDS011;28351;51.480;5.706;2022-07-22T09:08:59;3.88;;;1.75;;
42714;SDS011;28351;51.480;5.706;2022-07-22T09:11:27;4.63;;;1.98;;
42714;SDS011;28351;51.480;5.706;2022-07-22T09:13:55;3.50;;;1.95;;
42714;SDS011;28351;51.480;5.706;2022-07-22T09:16:38;3.57;;;1.93;;
42714;SDS011;28351;51.480;5.706;2022-07-22T09:19:11;4.30;;;1.90;;
42714;SDS011;28351;51.480;5.706;2022-07-22T09:21:38;2.88;;;1.80;;
42714;SDS011;28351;51.480;5.706;2022-07-22T09:24:05;3.53;;;1.75;;
42714;SDS011;28351;51.480;5.706;2022-07-22T09:26:33;2.88;;;1.73;;
42714;SDS011;28351;51.480;5.706;2022-07-22T09:29:03;4.65;;;1.80;;
42714;SDS011;28351;51.480;5.706;2022-07-22T09:31:32;3.35;;;1.63;;
42714;SDS011;28351;51.480;5.706;2022-07-22T09:33:59;4.30;;;1.77;;
42714;SDS011;28351;51.480;5.706;2022-07-22T09:36:26;3.97;;;2.33;;
42714;SDS011;28351;51.480;5.706;2022-07-22T09:38:52;2.97;;;1.85;;
42714;SDS011;28351;51.480;5.706;2022-07-22T09:41:18;4.05;;;2.15;;
42714;SDS011;28351;51.480;5.706;2022-07-22T09:43:44;3.78;;;2.10;;
42714;SDS011;28351;51.480;5.706;2022-07-22T09:46:10;4.60;;;2.70;;
42714;SDS011;28351;51.480;5.706;2022-07-22T09:48:37;7.35;;;2.40;;
42714;SDS011;28351;51.480;5.706;2022-07-22T09:51:03;4.00;;;2.63;;
42714;SDS011;28351;51.480;5.706;2022-07-22T09:53:30;5.75;;;2.10;;
42714;SDS011;28351;51.480;5.706;2022-07-22T09:55:57;3.53;;;2.38;;
42714;SDS011;28351;51.480;5.706;2022-07-22T09:58:24;5.32;;;2.50;;
42714;SDS011;28351;51.480;5.706;2022-07-22T10:00:51;3.38;;;2.30;;
42714;SDS011;28351;51.480;5.706;2022-07-22T10:03:27;5.95;;;2.65;;
42714;SDS011;28351;51.480;5.706;2022-07-22T10:05:55;5.30;;;2.30;;
42714;SDS011;28351;51.480;5.706;2022-07-22T10:08:21;2.78;;;2.40;;
42714;SDS011;28351;51.480;5.706;2022-07-22T10:10:53;4.68;;;2.35;;
42714;SDS011;28351;51.480;5.706;2022-07-22T10:13:23;4.07;;;2.30;;
42714;SDS011;28351;51.480;5.706;2022-07-22T10:15:48;4.22;;;2.15;;
42714;SDS011;28351;51.480;5.706;2022-07-22T10:18:16;4.18;;;2.10;;
42714;SDS011;28351;51.480;5.706;2022-07-22T10:20:43;4.90;;;1.75;;
42714;SDS011;28351;51.480;5.706;2022-07-22T10:23:09;3.88;;;1.80;;
42714;SDS011;28351;51.480;5.706;2022-07-22T10:28:32;2.53;;;1.80;;
42714;SDS011;28351;51.480;5.706;2022-07-22T10:31:18;3.15;;;1.98;;
42714;SDS011;28351;51.480;5.706;2022-07-22T10:33:53;4.57;;;2.03;;
42714;SDS011;28351;51.480;5.706;2022-07-22T10:36:30;3.75;;;1.92;;
42714;SDS011;28351;51.480;5.706;2022-07-22T10:39:07;2.60;;;1.70;;
42714;SDS011;28351;51.480;5.706;2022-07-22T10:41:36;2.63;;;1.70;;
42714;SDS011;28351;51.480;5.706;2022-07-22T10:49:16;3.60;;;2.17;;
42714;SDS011;28351;51.480;5.706;2022-07-22T10:57:43;4.78;;;1.75;;
42714;SDS011;28351;51.480;5.706;2022-07-22T11:00:09;2.78;;;1.63;;
42714;SDS011;28351;51.480;5.706;2022-07-22T11:02:35;3.97;;;1.63;;
42714;SDS011;28351;51.480;5.706;2022-07-22T11:05:03;2.83;;;1.90;;
42714;SDS011;28351;51.480;5.706;2022-07-22T11:07:29;3.15;;;1.80;;
42714;SDS011;28351;51.480;5.706;2022-07-22T11:10:07;3.80;;;1.80;;
42714;SDS011;28351;51.480;5.706;2022-07-22T11:12:37;3.90;;;2.38;;
42714;SDS011;28351;51.480;5.706;2022-07-22T11:15:06;3.85;;;2.25;;
42714;SDS011;28351;51.480;5.706;2022-07-22T11:17:34;3.33;;;2.08;;
42714;SDS011;28351;51.480;5.706;2022-07-22T11:20:01;1.98;;;1.77;;
42714;SDS011;28351;51.480;5.706;2022-07-22T11:22:29;4.10;;;2.10;;
42714;SDS011;28351;51.480;5.706;2022-07-22T11:24:55;2.70;;;1.65;;
42714;SDS011;28351;51.480;5.706;2022-07-22T11:27:21;4.00;;;2.35;;
42714;SDS011;28351;51.480;5.706;2022-07-22T11:29:48;2.42;;;1.58;;
42714;SDS011;28351;51.480;5.706;2022-07-22T11:32:15;3.67;;;1.95;;
42714;SDS011;28351;51.480;5.706;2022-07-22T11:34:42;3.10;;;2.40;;
42714;SDS011;28351;51.480;5.706;2022-07-22T11:37:16;4.00;;;1.80;;
42714;SDS011;28351;51.480;5.706;2022-07-22T11:39:43;2.22;;;1.58;;
42714;SDS011;28351;51.480;5.706;2022-07-22T11:42:09;3.45;;;1.90;;
42714;SDS011;28351;51.480;5.706;2022-07-22T11:44:38;4.85;;;1.63;;
42714;SDS011;28351;51.480;5.706;2022-07-22T11:47:05;3.00;;;1.65;;
42714;SDS011;28351;51.480;5.706;2022-07-22T11:49:32;3.13;;;1.98;;
42714;SDS011;28351;51.480;5.706;2022-07-22T11:52:00;5.68;;;1.95;;
42714;SDS011;28351;51.480;5.706;2022-07-22T11:54:28;2.45;;;1.95;;
42714;SDS011;28351;51.480;5.706;2022-07-22T11:56:53;2.90;;;1.67;;
42714;SDS011;28351;51.480;5.706;2022-07-22T11:59:21;3.15;;;2.00;;
42714;SDS011;28351;51.480;5.706;2022-07-22T12:01:47;2.20;;;1.52;;
42714;SDS011;28351;51.480;5.706;2022-07-22T12:04:17;3.33;;;1.63;;
42714;SDS011;28351;51.480;5.706;2022-07-22T12:06:47;3.17;;;1.80;;
42714;SDS011;28351;51.480;5.706;2022-07-22T12:11:47;3.15;;;1.95;;
42714;SDS011;28351;51.480;5.706;2022-07-22T12:14:17;3.10;;;1.98;;
42714;SDS011;28351;51.480;5.706;2022-07-22T12:17:02;4.30;;;2.08;;
42714;SDS011;28351;51.480;5.706;2022-07-22T12:19:29;2.17;;;1.50;;
42714;SDS011;28351;51.480;5.706;2022-07-22T12:21:58;3.00;;;1.90;;
42714;SDS011;28351;51.480;5.706;2022-07-22T12:26:58;3.22;;;1.65;;
42714;SDS011;28351;51.480;5.706;2022-07-22T12:32:06;2.28;;;1.80;;
42714;SDS011;28351;51.480;5.706;2022-07-22T12:39:37;3.35;;;2.15;;
42714;SDS011;28351;51.480;5.706;2022-07-22T12:42:03;6.15;;;2.10;;
42714;SDS011;28351;51.480;5.706;2022-07-22T12:45:02;2.97;;;1.85;;
42714;SDS011;28351;51.480;5.706;2022-07-22T12:47:38;3.45;;;2.00;;
42714;SDS011;28351;51.480;5.706;2022-07-22T12:50:18;3.85;;;2.00;;
42714;SDS011;28351;51.480;5.706;2022-07-22T12:55:13;4.30;;;1.95;;
42714;SDS011;28351;51.480;5.706;2022-07-22T12:57:38;3.40;;;2.20;;
42714;SDS011;28351;51.480;5.706;2022-07-22T13:00:04;3.47;;;2.28;;
42714;SDS011;28351;51.480;5.706;2022-07-22T13:02:30;2.97;;;2.35;;
42714;SDS011;28351;51.480;5.706;2022-07-22T13:04:56;3.03;;;1.70;;
42714;SDS011;28351;51.480;5.706;2022-07-22T13:07:21;3.17;;;2.00;;
42714;SDS011;28351;51.480;5.706;2022-07-22T13:09:47;2.75;;;1.60;;
42714;SDS011;28351;51.480;5.706;2022-07-22T13:12:13;3.20;;;1.67;;
42714;SDS011;28351;51.480;5.706;2022-07-22T13:14:41;3.42;;;2.28;;
42714;SDS011;28351;51.480;5.706;2022-07-22T13:17:09;4.88;;;2.20;;
42714;SDS011;28351;51.480;5.706;2022-07-22T13:19:37;5.45;;;1.92;;
42714;SDS011;28351;51.480;5.706;2022-07-22T13:22:02;2.95;;;1.83;;
42714;SDS011;28351;51.480;5.706;2022-07-22T13:24:28;4.22;;;2.63;;
42714;SDS011;28351;51.480;5.706;2022-07-22T13:26:53;2.83;;;2.10;;
42714;SDS011;28351;51.480;5.706;2022-07-22T13:29:19;2.97;;;2.35;;
42714;SDS011;28351;51.480;5.706;2022-07-22T13:31:45;4.53;;;2.38;;
42714;SDS011;28351;51.480;5.706;2022-07-22T13:34:20;4.20;;;2.22;;
42714;SDS011;28351;51.480;5.706;2022-07-22T13:36:46;4.05;;;2.45;;
42714;SDS011;28351;51.480;5.706;2022-07-22T13:39:11;4.93;;;2.90;;
42714;SDS011;28351;51.480;5.706;2022-07-22T13:41:37;3.65;;;2.80;;
42714;SDS011;28351;51.480;5.706;2022-07-22T13:44:02;4.03;;;2.50;;
42714;SDS011;28351;51.480;5.706;2022-07-22T13:46:31;2.80;;;2.03;;
42714;SDS011;28351;51.480;5.706;2022-07-22T13:48:59;4.72;;;2.55;;
42714;SDS011;28351;51.480;5.706;2022-07-22T13:51:25;4.20;;;2.58;;
42714;SDS011;28351;51.480;5.706;2022-07-22T13:53:50;4.65;;;2.15;;
42714;SDS011;28351;51.480;5.706;2022-07-22T13:56:16;3.00;;;2.00;;
42714;SDS011;28351;51.480;5.706;2022-07-22T13:58:41;2.38;;;1.75;;
42714;SDS011;28351;51.480;5.706;2022-07-22T14:01:07;3.15;;;1.90;;
42714;SDS011;28351;51.480;5.706;2022-07-22T14:03:34;2.60;;;1.75;;
42714;SDS011;28351;51.480;5.706;2022-07-22T14:06:00;4.25;;;2.33;;
42714;SDS011;28351;51.480;5.706;2022-07-22T14:08:26;3.80;;;2.38;;
42714;SDS011;28351;51.480;5.706;2022-07-22T14:10:52;3.95;;;2.05;;
42714;SDS011;28351;51.480;5.706;2022-07-22T14:13:17;2.72;;;1.75;;
42714;SDS011;28351;51.480;5.706;2022-07-22T14:15:43;2.38;;;1.75;;
42714;SDS011;28351;51.480;5.706;2022-07-22T14:18:09;4.22;;;2.17;;
42714;SDS011;28351;51.480;5.706;2022-07-22T14:20:35;2.38;;;1.85;;
42714;SDS011;28351;51.480;5.706;2022-07-22T14:23:00;3.53;;;1.90;;
42714;SDS011;28351;51.480;5.706;2022-07-22T14:25:26;2.55;;;2.08;;
42714;SDS011;28351;51.480;5.706;2022-07-22T14:27:52;3.65;;;2.22;;
42714;SDS011;28351;51.480;5.706;2022-07-22T14:30:18;2.95;;;2.05;;
42714;SDS011;28351;51.480;5.706;2022-07-22T14:32:44;4.47;;;2.28;;
42714;SDS011;28351;51.480;5.706;2022-07-22T14:35:09;3.08;;;2.33;;
42714;SDS011;28351;51.480;5.706;2022-07-22T14:37:35;2.40;;;2.05;;
42714;SDS011;28351;51.480;5.706;2022-07-22T14:40:01;3.33;;;2.30;;
42714;SDS011;28351;51.480;5.706;2022-07-22T14:42:27;3.88;;;2.00;;
42714;SDS011;28351;51.480;5.706;2022-07-22T14:44:53;3.97;;;2.67;;
42714;SDS011;28351;51.480;5.706;2022-07-22T14:47:18;4.57;;;2.67;;
42714;SDS011;28351;51.480;5.706;2022-07-22T14:49:44;4.57;;;2.30;;
42714;SDS011;28351;51.480;5.706;2022-07-22T14:52:09;4.18;;;2.15;;
42714;SDS011;28351;51.480;5.706;2022-07-22T14:54:35;3.00;;;1.83;;
42714;SDS011;28351;51.480;5.706;2022-07-22T14:57:01;4.00;;;2.20;;
42714;SDS011;28351;51.480;5.706;2022-07-22T14:59:27;4.40;;;2.47;;
42714;SDS011;28351;51.480;5.706;2022-07-22T15:01:54;3.92;;;2.10;;
42714;SDS011;28351;51.480;5.706;2022-07-22T15:04:20;6.68;;;2.75;;
42714;SDS011;28351;51.480;5.706;2022-07-22T15:06:45;3.55;;;2.40;;
42714;SDS011;28351;51.480;5.706;2022-07-22T15:09:14;3.88;;;2.10;;
42714;SDS011;28351;51.480;5.706;2022-07-22T15:11:41;4.63;;;2.42;;